createdAt,value
2023-06-29T00:01:03.742Z,19.51
2023-06-29T00:04:33.089Z,19.52
2023-06-29T00:07:49.409Z,19.53
2023-06-29T00:11:19.111Z,19.50
2023-06-29T00:14:49.017Z,19.44
2023-06-29T00:18:18.250Z,19.41
2023-06-29T00:21:47.484Z,19.42
2023-06-29T00:25:21.003Z,19.40
2023-06-29T00:28:50.406Z,19.39
2023-06-29T00:32:13.256Z,19.38
2023-06-29T00:35:42.808Z,19.36
2023-06-29T00:39:12.934Z,19.33
2023-06-29T00:42:35.055Z,19.34
2023-06-29T00:46:04.266Z,19.38
2023-06-29T00:49:33.473Z,19.46
2023-06-29T00:53:02.517Z,19.54
2023-06-29T00:56:32.076Z,19.62
2023-06-29T01:00:01.158Z,19.68
2023-06-29T01:03:32.391Z,19.71
2023-06-29T01:07:01.877Z,19.68
2023-06-29T01:10:32.154Z,19.63
2023-06-29T01:14:01.098Z,19.63
2023-06-29T01:17:30.377Z,19.66
2023-06-29T01:21:00.329Z,19.69
2023-06-29T01:24:29.528Z,19.69
2023-06-29T01:27:59.040Z,19.71
2023-06-29T01:31:28.054Z,19.74
2023-06-29T01:34:57.059Z,19.77
2023-06-29T01:38:35.580Z,19.79
2023-06-29T01:41:57.919Z,19.84
2023-06-29T01:45:10.317Z,19.89
2023-06-29T01:48:39.876Z,19.93
2023-06-29T01:52:08.924Z,19.98
2023-06-29T01:55:38.959Z,20.01
2023-06-29T01:59:09.187Z,20.03
2023-06-29T02:02:37.657Z,20.04
2023-06-29T02:06:06.713Z,20.03
2023-06-29T02:09:36.031Z,19.98
2023-06-29T02:13:05.045Z,19.92
2023-06-29T02:16:23.610Z,19.89
2023-06-29T02:19:52.865Z,19.89
2023-06-29T02:23:22.511Z,19.89
2023-06-29T02:26:51.619Z,19.89
2023-06-29T02:30:20.837Z,19.91
2023-06-29T02:33:50.124Z,19.92
2023-06-29T02:37:19.754Z,19.93
2023-06-29T02:40:49.695Z,19.92
2023-06-29T02:44:18.884Z,19.91
2023-06-29T02:47:48.365Z,19.92
2023-06-29T02:51:18.133Z,19.90
2023-06-29T02:54:48.649Z,19.89
2023-06-29T02:58:17.889Z,19.88
2023-06-29T03:01:46.901Z,19.87
2023-06-29T03:05:15.603Z,19.85
2023-06-29T03:08:44.468Z,19.84
2023-06-29T03:12:14.064Z,19.83
2023-06-29T03:15:43.591Z,19.82
2023-06-29T03:19:12.951Z,19.81
2023-06-29T03:22:34.988Z,19.80
2023-06-29T03:26:04.217Z,19.78
2023-06-29T03:29:33.167Z,19.74
2023-06-29T03:33:02.172Z,19.70
2023-06-29T03:36:31.525Z,19.67
2023-06-29T03:40:00.580Z,19.63
2023-06-29T03:43:30.811Z,19.58
2023-06-29T03:47:00.000Z,19.53
2023-06-29T03:50:28.019Z,19.47
2023-06-29T03:53:57.052Z,19.39
2023-06-29T03:57:26.111Z,19.33
2023-06-29T04:00:55.234Z,19.28
2023-06-29T04:04:17.583Z,19.22
2023-06-29T04:07:46.672Z,19.17
2023-06-29T04:11:15.576Z,19.12
2023-06-29T04:14:44.773Z,19.07
2023-06-29T04:18:13.687Z,19.02
2023-06-29T04:21:42.990Z,18.96
2023-06-29T04:25:05.792Z,18.91
2023-06-29T04:28:35.118Z,18.85
2023-06-29T04:31:44.218Z,18.79
2023-06-29T04:35:12.908Z,18.75
2023-06-29T04:38:41.850Z,18.69
2023-06-29T04:42:11.171Z,18.61
2023-06-29T04:45:41.784Z,18.54
2023-06-29T04:49:11.337Z,18.48
2023-06-29T04:52:23.640Z,18.44
2023-06-29T04:55:53.066Z,18.38
2023-06-29T04:59:15.346Z,18.31
2023-06-29T05:02:44.873Z,18.25
2023-06-29T05:06:14.933Z,18.18
2023-06-29T05:09:44.185Z,18.14
2023-06-29T05:13:13.623Z,18.11
2023-06-29T05:16:43.293Z,18.07
2023-06-29T05:20:13.706Z,18.03
2023-06-29T05:23:43.075Z,18.00
2023-06-29T05:26:52.386Z,17.94
2023-06-29T05:30:01.068Z,17.90
2023-06-29T05:33:09.674Z,17.85
2023-06-29T05:36:18.300Z,17.81
2023-06-29T05:39:26.898Z,17.76
2023-06-29T05:42:35.433Z,17.74
2023-06-29T05:45:44.394Z,17.72
2023-06-29T05:48:54.114Z,17.69
2023-06-29T05:52:03.515Z,17.69
2023-06-29T05:55:12.700Z,17.70
2023-06-29T05:58:21.637Z,17.69
2023-06-29T06:01:30.192Z,17.67
2023-06-29T06:04:37.425Z,17.65
2023-06-29T06:07:39.188Z,17.63
2023-06-29T06:10:48.394Z,17.64
2023-06-29T06:13:56.658Z,17.65
2023-06-29T06:17:04.904Z,17.64
2023-06-29T06:20:03.437Z,17.63
2023-06-29T06:23:11.801Z,17.63
2023-06-29T06:26:21.640Z,17.63
2023-06-29T06:29:30.304Z,17.64
2023-06-29T06:32:38.537Z,17.65
2023-06-29T06:35:48.167Z,17.64
2023-06-29T06:38:56.391Z,17.63
2023-06-29T06:42:04.882Z,17.63
2023-06-29T06:45:13.788Z,17.62
2023-06-29T06:48:20.959Z,17.59
2023-06-29T06:51:30.775Z,17.58
2023-06-29T06:54:40.430Z,17.54
2023-06-29T06:57:49.037Z,17.49
2023-06-29T07:00:57.588Z,17.44
2023-06-29T07:04:06.147Z,17.39
2023-06-29T07:07:14.742Z,17.35
2023-06-29T07:10:23.539Z,17.29
2023-06-29T07:13:32.292Z,17.24
2023-06-29T07:16:41.100Z,17.21
2023-06-29T07:26:22.729Z,17.10
2023-06-29T07:29:31.155Z,17.04
2023-06-29T07:32:32.812Z,16.99
2023-06-29T07:35:41.247Z,16.96
2023-06-29T07:38:49.128Z,16.93
2023-06-29T07:41:56.551Z,16.92
2023-06-29T07:45:05.046Z,16.93
2023-06-29T07:48:14.422Z,16.94
2023-06-29T07:51:22.938Z,16.95
2023-06-29T07:54:31.651Z,16.94
2023-06-29T08:00:31.947Z,16.90
2023-06-29T08:03:55.986Z,16.89
2023-06-29T08:07:10.416Z,16.87
2023-06-29T08:10:19.184Z,16.85
2023-06-29T08:13:27.576Z,16.83
2023-06-29T08:16:35.883Z,16.80
2023-06-29T08:19:43.157Z,16.77
2023-06-29T08:22:51.741Z,16.74
2023-06-29T08:26:00.957Z,16.70
2023-06-29T08:29:09.253Z,16.65
2023-06-29T08:32:17.661Z,16.61
2023-06-29T08:35:25.928Z,16.57
2023-06-29T08:38:34.314Z,16.54
2023-06-29T08:41:42.578Z,16.51
2023-06-29T08:44:50.932Z,16.47
2023-06-29T08:47:58.615Z,16.44
2023-06-29T08:51:07.726Z,16.40
2023-06-29T08:54:15.946Z,16.36
2023-06-29T08:57:25.706Z,16.32
2023-06-29T09:00:28.100Z,16.26
2023-06-29T09:03:38.398Z,16.20
2023-06-29T09:06:46.961Z,16.15
2023-06-29T09:09:55.542Z,16.10
2023-06-29T09:13:04.256Z,16.07
2023-06-29T09:16:03.338Z,16.03
2023-06-29T09:19:11.912Z,15.98
2023-06-29T09:22:20.589Z,15.94
2023-06-29T09:25:34.738Z,15.90
2023-06-29T09:28:47.562Z,15.85
2023-06-29T09:31:56.297Z,15.82
2023-06-29T09:35:05.100Z,15.78
2023-06-29T09:38:13.309Z,15.75
2023-06-29T09:41:30.965Z,15.69
2023-06-29T09:44:34.983Z,15.64
2023-06-29T09:51:04.269Z,15.52
2023-06-29T09:54:14.163Z,15.49
2023-06-29T09:57:25.540Z,15.46
2023-06-29T10:00:15.018Z,15.43
2023-06-29T10:03:23.460Z,15.40
2023-06-29T10:06:32.092Z,15.35
2023-06-29T10:09:33.757Z,15.32
2023-06-29T10:12:42.354Z,15.30
2023-06-29T10:15:50.761Z,15.27
2023-06-29T10:18:59.507Z,15.24
2023-06-29T10:22:08.145Z,15.21
2023-06-29T10:25:09.933Z,15.20
2023-06-29T10:28:18.592Z,15.18
2023-06-29T10:31:27.270Z,15.14
2023-06-29T10:34:35.823Z,15.13
2023-06-29T10:37:45.415Z,15.11
2023-06-29T10:40:54.141Z,15.12
2023-06-29T10:44:02.734Z,15.13
2023-06-29T10:47:23.715Z,15.13
2023-06-29T10:50:35.285Z,15.11
2023-06-29T10:53:43.924Z,15.12
2023-06-29T10:56:52.576Z,15.13
2023-06-29T11:00:01.494Z,15.13
2023-06-29T11:03:10.333Z,15.08
2023-06-29T11:09:53.465Z,15.01
2023-06-29T11:13:02.111Z,14.97
2023-06-29T11:16:10.716Z,14.94
2023-06-29T11:19:19.292Z,14.92
2023-06-29T11:22:27.965Z,14.89
2023-06-29T11:25:35.198Z,14.87
2023-06-29T11:28:43.625Z,14.85
2023-06-29T11:31:52.424Z,14.85
2023-06-29T11:35:01.540Z,14.85
2023-06-29T11:38:10.505Z,14.86
2023-06-29T11:41:19.111Z,14.85
2023-06-29T11:44:27.540Z,14.84
2023-06-29T11:47:33.210Z,14.82
2023-06-29T11:50:36.421Z,14.78
2023-06-29T11:53:45.309Z,14.76
2023-06-29T11:57:11.215Z,14.75
2023-06-29T12:00:16.140Z,14.73
2023-06-29T12:03:24.750Z,14.70
2023-06-29T12:06:33.495Z,14.69
2023-06-29T12:09:42.155Z,14.71
2023-06-29T12:12:50.925Z,14.74
2023-06-29T12:19:10.912Z,14.77
2023-06-29T12:22:19.786Z,14.78
2023-06-29T12:25:32.221Z,14.75
2023-06-29T12:28:40.999Z,14.74
2023-06-29T12:31:50.037Z,14.70
2023-06-29T12:34:58.544Z,14.67
2023-06-29T12:38:07.142Z,14.64
2023-06-29T12:41:15.876Z,14.59
2023-06-29T12:44:25.514Z,14.56
2023-06-29T12:47:34.082Z,14.54
2023-06-29T12:50:42.738Z,14.53
2023-06-29T12:53:51.227Z,14.51
2023-06-29T12:56:52.658Z,14.52
2023-06-29T13:00:01.042Z,14.47
2023-06-29T13:03:10.098Z,14.44
2023-06-29T13:06:18.840Z,14.42
2023-06-29T13:09:27.342Z,14.42
2023-06-29T13:12:36.108Z,14.41
2023-06-29T13:15:45.060Z,14.39
2023-06-29T13:18:53.856Z,14.39
2023-06-29T13:22:02.503Z,14.40
2023-06-29T13:25:12.214Z,14.41
2023-06-29T13:28:19.707Z,14.42
2023-06-29T13:31:28.627Z,14.40
2023-06-29T13:34:37.555Z,14.39
2023-06-29T13:37:46.199Z,14.39
2023-06-29T13:40:55.038Z,14.44
2023-06-29T13:44:03.656Z,14.45
2023-06-29T13:47:12.471Z,14.45
2023-06-29T13:50:25.512Z,14.44
2023-06-29T13:53:37.827Z,14.44
2023-06-29T13:56:46.820Z,14.44
2023-06-29T13:59:55.491Z,14.45
2023-06-29T14:03:04.524Z,14.43
2023-06-29T14:06:12.119Z,14.42
2023-06-29T14:09:13.685Z,14.42
2023-06-29T14:12:22.327Z,14.40
2023-06-29T14:15:30.916Z,14.38
2023-06-29T14:18:39.599Z,14.40
2023-06-29T14:21:47.932Z,14.43
2023-06-29T14:24:56.640Z,14.46
2023-06-29T14:28:05.724Z,14.51
2023-06-29T14:31:14.596Z,14.56
2023-06-29T14:34:23.360Z,14.58
2023-06-29T14:37:31.922Z,14.60
2023-06-29T14:40:40.463Z,14.61
2023-06-29T14:43:49.161Z,14.61
2023-06-29T14:46:58.934Z,14.61
2023-06-29T14:50:07.824Z,14.63
2023-06-29T14:53:16.589Z,14.64
2023-06-29T14:56:26.351Z,14.64
2023-06-29T14:59:25.197Z,14.60
2023-06-29T15:02:34.510Z,14.60
2023-06-29T15:05:43.824Z,14.62
2023-06-29T15:08:52.745Z,14.65
2023-06-29T15:11:51.861Z,14.68
2023-06-29T15:15:00.335Z,14.69
2023-06-29T15:18:08.619Z,14.70
2023-06-29T15:21:17.174Z,14.72
2023-06-29T15:24:26.393Z,14.73
2023-06-29T15:27:34.615Z,14.76
2023-06-29T15:30:41.114Z,14.77
2023-06-29T15:33:59.899Z,14.80
2023-06-29T15:37:08.202Z,14.82
2023-06-29T15:40:16.478Z,14.84
2023-06-29T15:43:24.694Z,14.87
2023-06-29T15:46:33.402Z,14.91
2023-06-29T15:49:41.680Z,14.94
2023-06-29T15:52:49.996Z,14.96
2023-06-29T15:55:59.898Z,14.97
2023-06-29T15:58:50.838Z,14.97
2023-06-29T16:01:59.093Z,14.98
2023-06-29T16:05:07.540Z,15.01
2023-06-29T16:08:15.824Z,15.04
2023-06-29T16:11:24.368Z,15.05
2023-06-29T16:14:32.596Z,15.06
2023-06-29T16:17:40.878Z,15.07
2023-06-29T16:20:49.296Z,15.10
2023-06-29T16:23:57.530Z,15.10
2023-06-29T16:27:06.615Z,15.11
2023-06-29T16:30:14.818Z,15.12
2023-06-29T16:33:23.516Z,15.11
2023-06-29T16:36:31.903Z,15.12
2023-06-29T16:39:40.647Z,15.13
2023-06-29T16:42:49.406Z,15.13
2023-06-29T16:45:59.177Z,15.13
2023-06-29T16:49:08.997Z,15.12
2023-06-29T16:52:17.263Z,15.10
2023-06-29T16:55:26.597Z,15.09
2023-06-29T16:58:35.403Z,15.06
2023-06-29T17:01:44.231Z,15.04
2023-06-29T17:04:52.495Z,15.02
2023-06-29T17:08:01.923Z,15.03
2023-06-29T17:11:03.768Z,15.04
2023-06-29T17:14:05.495Z,15.07
2023-06-29T17:17:12.597Z,15.09
2023-06-29T17:20:21.382Z,15.12
2023-06-29T17:23:30.047Z,15.19
2023-06-29T17:26:27.203Z,15.23
2023-06-29T17:29:36.641Z,15.26
2023-06-29T17:32:45.230Z,15.29
2023-06-29T17:35:53.691Z,15.34
2023-06-29T17:39:02.882Z,15.38
2023-06-29T17:42:11.272Z,15.41
2023-06-29T17:45:19.856Z,15.43
2023-06-29T17:48:28.903Z,15.45
2023-06-29T17:51:37.444Z,15.47
2023-06-29T17:54:47.175Z,15.50
2023-06-29T17:57:55.563Z,15.51
2023-06-29T18:01:04.631Z,15.53
2023-06-29T18:04:13.485Z,15.56
2023-06-29T18:07:22.199Z,15.59
2023-06-29T18:10:30.729Z,15.62
2023-06-29T18:13:39.472Z,15.64
2023-06-29T18:16:48.200Z,15.67
2023-06-29T18:19:57.279Z,15.70
2023-06-29T18:23:05.937Z,15.74
2023-06-29T18:26:14.531Z,15.78
2023-06-29T18:29:23.350Z,15.84
2023-06-29T18:32:31.216Z,15.88
2023-06-29T18:35:39.902Z,15.93
2023-06-29T18:38:48.357Z,15.99
2023-06-29T18:42:09.609Z,16.05
2023-06-29T18:45:02.109Z,16.12
2023-06-29T18:48:10.417Z,16.19
2023-06-29T18:51:19.736Z,16.26
2023-06-29T18:54:27.996Z,16.37
2023-06-29T18:57:36.247Z,16.47
2023-06-29T19:00:44.500Z,16.60
2023-06-29T19:03:52.912Z,16.71
2023-06-29T19:07:01.683Z,16.82
2023-06-29T19:10:10.001Z,16.93
2023-06-29T19:13:18.305Z,17.02
2023-06-29T19:16:27.037Z,17.11
2023-06-29T19:19:35.270Z,17.22
2023-06-29T19:22:44.903Z,17.32
2023-06-29T19:25:46.836Z,17.41
2023-06-29T19:28:55.279Z,17.51
2023-06-29T19:31:56.292Z,17.59
2023-06-29T19:35:04.605Z,17.66
2023-06-29T19:38:12.949Z,17.73
2023-06-29T19:41:21.166Z,17.80
2023-06-29T19:44:29.438Z,17.89
2023-06-29T19:47:37.680Z,18.01
2023-06-29T19:50:47.107Z,18.14
2023-06-29T19:53:48.045Z,18.25
2023-06-29T19:56:56.266Z,18.35
2023-06-29T20:00:04.574Z,18.46
2023-06-29T20:03:13.441Z,18.54
2023-06-29T20:06:21.990Z,18.63
2023-06-29T20:09:30.243Z,18.69
2023-06-29T20:12:31.321Z,18.76
2023-06-29T20:15:29.825Z,18.83
2023-06-29T20:18:38.267Z,18.88
2023-06-29T20:21:46.603Z,18.93
2023-06-29T20:24:55.374Z,18.99
2023-06-29T20:27:55.266Z,19.05
2023-06-29T20:30:56.710Z,19.10
2023-06-29T20:34:06.152Z,19.16
2023-06-29T20:37:14.771Z,19.23
2023-06-29T20:40:23.395Z,19.29
2023-06-29T20:43:33.266Z,19.34
2023-06-29T20:46:36.768Z,19.37
2023-06-29T20:49:44.997Z,19.41
2023-06-29T20:52:45.852Z,19.47
2023-06-29T20:55:54.784Z,19.52
2023-06-29T20:59:03.233Z,19.57
2023-06-29T21:02:11.872Z,19.63
2023-06-29T21:05:20.876Z,19.67
2023-06-29T21:08:30.614Z,19.73
2023-06-29T21:11:42.025Z,19.80
2023-06-29T21:14:50.734Z,19.87
2023-06-29T21:17:59.257Z,19.94
2023-06-29T21:21:07.687Z,20.00
2023-06-29T21:24:16.902Z,20.06
2023-06-29T21:27:25.214Z,20.11
2023-06-29T21:30:23.833Z,20.17
2023-06-29T21:33:32.311Z,20.23
2023-06-29T21:36:40.801Z,20.30
2023-06-29T21:39:49.546Z,20.36
2023-06-29T21:42:58.648Z,20.41
2023-06-29T21:45:59.661Z,20.45
2023-06-29T21:49:08.373Z,20.49
2023-06-29T21:52:17.228Z,20.54
2023-06-29T21:55:27.495Z,20.58
2023-06-29T21:58:36.382Z,20.62
2023-06-29T22:01:44.963Z,20.64
2023-06-29T22:04:53.545Z,20.67
2023-06-29T22:08:02.630Z,20.70
2023-06-29T22:11:11.365Z,20.71
2023-06-29T22:14:20.048Z,20.73
2023-06-29T22:17:29.911Z,20.77
2023-06-29T22:20:50.818Z,20.78
2023-06-29T22:24:00.669Z,20.79
2023-06-29T22:27:10.580Z,20.81
2023-06-29T22:30:10.623Z,20.77
2023-06-29T22:33:19.190Z,20.69
2023-06-29T22:36:27.850Z,20.64
2023-06-29T22:39:36.790Z,20.61
2023-06-29T22:42:45.654Z,20.58
2023-06-29T22:45:54.237Z,20.53
2023-06-29T22:49:02.981Z,20.50
2023-06-29T22:52:11.536Z,20.47
2023-06-29T22:55:20.748Z,20.43
2023-06-29T22:58:29.418Z,20.43
2023-06-29T23:01:39.229Z,20.43
2023-06-29T23:04:48.073Z,20.43
2023-06-29T23:07:56.684Z,20.43
2023-06-29T23:11:05.444Z,20.43
2023-06-29T23:14:14.213Z,20.43
2023-06-29T23:17:25.702Z,20.43
2023-06-29T23:20:34.267Z,20.43
2023-06-29T23:23:43.022Z,20.47
2023-06-29T23:26:51.977Z,20.50
2023-06-29T23:30:00.498Z,20.56
2023-06-29T23:33:09.755Z,20.64
2023-06-29T23:36:18.693Z,20.73
2023-06-29T23:39:27.366Z,20.83
2023-06-29T23:42:36.075Z,20.90
2023-06-29T23:45:45.133Z,20.95
2023-06-29T23:48:54.271Z,20.99
2023-06-29T23:52:02.887Z,21.01
2023-06-29T23:55:12.509Z,21.02
2023-06-29T23:58:21.757Z,20.98
